createdAt,value
2019-05-22T00:02:23.740Z,90.10
2019-05-22T00:05:10.943Z,90.10
2019-05-22T00:07:41.771Z,90.10
2019-05-22T00:10:12.287Z,90.10
2019-05-22T00:12:46.547Z,90.10
2019-05-22T00:18:10.255Z,90.10
2019-05-22T00:20:39.123Z,90.10
2019-05-22T00:23:08.228Z,90.10
2019-05-22T00:25:37.809Z,90.10
2019-05-22T00:28:06.812Z,90.10
2019-05-22T00:30:37.083Z,90.10
2019-05-22T00:33:05.886Z,90.10
2019-05-22T00:35:37.087Z,90.10
2019-05-22T00:38:09.598Z,90.10
2019-05-22T00:40:42.750Z,90.10
2019-05-22T00:43:14.450Z,90.10
2019-05-22T00:45:45.761Z,90.10
2019-05-22T00:48:16.520Z,90.10
2019-05-22T00:50:53.764Z,90.10
2019-05-22T00:53:43.169Z,90.10
2019-05-22T00:56:31.301Z,90.10
2019-05-22T00:59:04.721Z,90.10
2019-05-22T01:01:47.881Z,90.10
2019-05-22T01:04:18.927Z,90.10
2019-05-22T01:06:50.919Z,90.10
2019-05-22T01:09:25.897Z,90.10
2019-05-22T01:11:56.016Z,90.10
2019-05-22T01:14:41.887Z,90.10
2019-05-22T01:16:59.798Z,90.10
2019-05-22T01:19:31.823Z,90.10
2019-05-22T01:22:02.122Z,90.20
2019-05-22T01:24:31.326Z,90.20
2019-05-22T01:26:59.895Z,90.20
2019-05-22T01:29:30.142Z,90.20
2019-05-22T01:32:00.692Z,90.10
2019-05-22T01:34:31.474Z,90.10
2019-05-22T01:37:01.874Z,90.10
2019-05-22T01:39:37.578Z,90.10
2019-05-22T01:42:10.990Z,90.10
2019-05-22T01:44:40.554Z,90.10
2019-05-22T01:47:13.450Z,90.00
2019-05-22T01:49:47.514Z,90.00
2019-05-22T01:52:16.768Z,90.00
2019-05-22T01:54:46.447Z,90.00
2019-05-22T01:57:15.886Z,90.00
2019-05-22T01:59:45.057Z,90.00
2019-05-22T02:02:14.674Z,90.00
2019-05-22T02:04:43.223Z,90.00
2019-05-22T02:07:14.025Z,90.00
2019-05-22T02:09:46.473Z,90.00
2019-05-22T02:12:31.358Z,90.10
2019-05-22T02:15:01.398Z,90.00
2019-05-22T02:17:35.361Z,90.00
2019-05-22T02:20:06.611Z,90.00
2019-05-22T02:22:38.717Z,90.00
2019-05-22T02:25:08.314Z,90.00
2019-05-22T02:27:38.856Z,90.00
2019-05-22T02:30:09.360Z,90.00
2019-05-22T02:32:38.955Z,90.00
2019-05-22T02:35:09.295Z,90.00
2019-05-22T02:37:39.162Z,90.00
2019-05-22T02:40:13.524Z,90.00
2019-05-22T02:42:43.688Z,90.00
2019-05-22T02:45:13.227Z,90.00
2019-05-22T02:47:43.040Z,89.90
2019-05-22T02:50:12.407Z,90.00
2019-05-22T02:52:41.485Z,90.00
2019-05-22T02:55:10.612Z,90.00
2019-05-22T02:57:39.400Z,90.00
2019-05-22T03:00:08.925Z,90.00
2019-05-22T03:02:40.862Z,90.00
2019-05-22T03:05:11.006Z,90.00
2019-05-22T03:07:41.965Z,90.00
2019-05-22T03:10:13.408Z,90.00
2019-05-22T03:12:42.786Z,90.00
2019-05-22T03:15:14.014Z,90.00
2019-05-22T03:17:43.619Z,90.00
2019-05-22T03:20:16.220Z,90.00
2019-05-22T03:23:06.743Z,90.00
2019-05-22T03:25:36.138Z,90.00
2019-05-22T03:28:05.682Z,90.00
2019-05-22T03:30:38.179Z,89.90
2019-05-22T03:33:08.048Z,89.90
2019-05-22T03:35:50.293Z,89.80
2019-05-22T03:38:20.213Z,89.80
2019-05-22T03:40:50.971Z,89.80
2019-05-22T03:43:28.143Z,89.80
2019-05-22T03:45:58.969Z,89.80
2019-05-22T03:48:30.527Z,89.80
2019-05-22T03:51:13.398Z,89.90
2019-05-22T03:53:43.893Z,90.00
2019-05-22T03:56:15.067Z,89.90
2019-05-22T03:58:45.579Z,89.90
2019-05-22T04:01:15.544Z,90.00
2019-05-22T04:03:46.134Z,90.00
2019-05-22T04:06:16.200Z,90.00
2019-05-22T04:08:45.585Z,90.00
2019-05-22T04:11:14.880Z,90.00
2019-05-22T04:13:44.267Z,90.00
2019-05-22T04:16:17.575Z,90.00
2019-05-22T04:18:47.049Z,90.00
2019-05-22T04:21:15.759Z,90.10
2019-05-22T04:23:44.519Z,90.10
2019-05-22T04:26:15.085Z,90.10
2019-05-22T04:28:50.867Z,90.10
2019-05-22T04:31:20.148Z,90.10
2019-05-22T04:33:50.457Z,90.20
2019-05-22T04:36:19.983Z,90.20
2019-05-22T04:38:49.388Z,90.20
2019-05-22T04:41:18.303Z,90.20
2019-05-22T04:43:47.393Z,90.20
2019-05-22T04:46:16.695Z,90.20
2019-05-22T04:48:46.411Z,90.20
2019-05-22T04:51:25.988Z,90.20
2019-05-22T04:53:56.147Z,90.20
2019-05-22T04:56:25.903Z,90.20
2019-05-22T04:58:55.267Z,90.20
2019-05-22T05:01:24.729Z,90.20
2019-05-22T05:03:53.597Z,90.20
2019-05-22T05:06:23.823Z,90.20
2019-05-22T05:08:53.113Z,90.20
2019-05-22T05:11:21.763Z,90.20
2019-05-22T05:13:50.460Z,90.20
2019-05-22T05:16:19.216Z,90.20
2019-05-22T05:18:48.166Z,90.20
2019-05-22T05:21:18.155Z,90.20
2019-05-22T05:23:47.121Z,90.10
2019-05-22T05:26:16.047Z,90.10
2019-05-22T05:28:45.305Z,90.10
2019-05-22T05:31:15.920Z,90.10
2019-05-22T05:34:04.436Z,90.10
2019-05-22T05:36:33.058Z,90.10
2019-05-22T05:39:03.187Z,90.10
2019-05-22T05:41:31.619Z,90.10
2019-05-22T05:44:00.510Z,90.10
2019-05-22T05:46:30.549Z,90.10
2019-05-22T05:48:59.602Z,90.10
2019-05-22T05:51:31.069Z,90.10
2019-05-22T05:54:08.177Z,90.10
2019-05-22T05:56:39.168Z,90.10
2019-05-22T05:59:08.398Z,90.10
2019-05-22T06:01:39.558Z,90.10
2019-05-22T06:04:09.000Z,90.10
2019-05-22T06:06:43.494Z,90.10
2019-05-22T06:09:15.161Z,90.00
2019-05-22T06:11:50.618Z,90.00
2019-05-22T06:14:25.887Z,90.00
2019-05-22T06:17:23.147Z,90.00
2019-05-22T06:20:05.472Z,90.00
2019-05-22T06:22:34.274Z,89.90
2019-05-22T06:25:06.136Z,90.00
2019-05-22T06:27:43.985Z,89.80
2019-05-22T06:30:21.667Z,89.80
2019-05-22T06:33:12.296Z,89.50
2019-05-22T06:35:42.260Z,89.20
2019-05-22T06:38:36.773Z,89.20
2019-05-22T06:41:06.826Z,89.20
2019-05-22T06:43:41.107Z,89.10
2019-05-22T06:46:10.077Z,89.00
2019-05-22T06:48:40.609Z,89.00
2019-05-22T06:51:19.091Z,89.00
2019-05-22T06:53:39.553Z,89.00
2019-05-22T06:56:08.061Z,89.00
2019-05-22T06:58:36.676Z,88.80
2019-05-22T07:01:07.120Z,88.70
2019-05-22T07:03:35.612Z,88.60
2019-05-22T07:06:05.403Z,88.50
2019-05-22T07:08:33.933Z,88.00
2019-05-22T07:11:04.644Z,88.00
2019-05-22T07:13:34.103Z,87.80
2019-05-22T07:16:03.612Z,87.30
2019-05-22T07:18:34.052Z,86.90
2019-05-22T07:21:03.670Z,86.50
2019-05-22T07:23:34.726Z,86.30
2019-05-22T07:26:04.214Z,86.50
2019-05-22T07:28:33.423Z,86.10
2019-05-22T07:31:02.828Z,86.20
2019-05-22T07:33:33.732Z,86.00
2019-05-22T07:36:13.586Z,86.00
2019-05-22T07:38:34.363Z,85.90
2019-05-22T07:41:03.988Z,85.80
2019-05-22T07:43:33.672Z,84.70
2019-05-22T07:46:02.930Z,83.50
2019-05-22T07:48:31.795Z,82.90
2019-05-22T07:51:02.290Z,82.00
2019-05-22T07:53:32.423Z,81.60
2019-05-22T07:56:05.020Z,81.70
2019-05-22T07:58:35.076Z,82.10
2019-05-22T08:01:04.971Z,82.00
2019-05-22T08:03:34.188Z,82.60
2019-05-22T08:06:03.068Z,82.80
2019-05-22T08:08:33.131Z,81.50
2019-05-22T08:11:02.081Z,80.60
2019-05-22T08:13:32.300Z,82.10
2019-05-22T08:16:00.926Z,82.60
2019-05-22T08:18:31.270Z,82.30
2019-05-22T08:20:59.768Z,82.90
2019-05-22T08:23:29.642Z,82.30
2019-05-22T08:25:59.581Z,80.50
2019-05-22T08:28:31.067Z,81.40
2019-05-22T08:31:00.610Z,81.20
2019-05-22T08:33:29.332Z,81.10
2019-05-22T08:35:59.636Z,79.50
2019-05-22T08:38:30.927Z,78.20
2019-05-22T08:41:01.475Z,79.10
2019-05-22T08:43:31.036Z,78.40
2019-05-22T08:46:00.413Z,78.30
2019-05-22T08:48:30.459Z,78.50
2019-05-22T08:51:00.131Z,75.30
2019-05-22T08:53:44.352Z,73.90
2019-05-22T08:56:00.693Z,72.80
2019-05-22T08:58:30.079Z,75.40
2019-05-22T09:00:58.733Z,75.60
2019-05-22T09:03:27.794Z,75.00
2019-05-22T09:05:56.391Z,71.90
2019-05-22T09:08:25.743Z,74.60
2019-05-22T09:10:54.436Z,73.60
2019-05-22T09:13:25.001Z,69.40
2019-05-22T09:15:53.694Z,66.30
2019-05-22T09:18:23.892Z,65.50
2019-05-22T09:20:52.584Z,60.90
2019-05-22T09:23:21.853Z,60.50
2019-05-22T09:25:50.300Z,58.60
2019-05-22T09:28:19.338Z,61.20
2019-05-22T09:30:48.043Z,60.80
2019-05-22T09:33:17.751Z,58.90
2019-05-22T09:35:46.658Z,60.70
2019-05-22T09:38:15.099Z,56.80
2019-05-22T09:40:44.384Z,54.40
2019-05-22T09:43:13.337Z,52.50
2019-05-22T09:45:42.208Z,51.40
2019-05-22T09:48:10.967Z,55.30
2019-05-22T09:50:41.263Z,49.40
2019-05-22T09:53:10.601Z,49.20
2019-05-22T09:55:39.161Z,46.50
2019-05-22T09:58:08.453Z,43.70
2019-05-22T10:00:37.482Z,44.70
2019-05-22T10:03:06.932Z,48.00
2019-05-22T10:05:36.218Z,43.20
2019-05-22T10:08:05.593Z,46.70
2019-05-22T10:10:34.291Z,46.80
2019-05-22T10:13:03.087Z,51.10
2019-05-22T10:15:33.787Z,54.00
2019-05-22T10:18:02.235Z,54.30
2019-05-22T10:20:31.600Z,47.80
2019-05-22T10:23:14.207Z,53.20
2019-05-22T10:25:31.087Z,49.90
2019-05-22T10:27:59.704Z,50.10
2019-05-22T10:30:29.250Z,50.50
2019-05-22T10:32:57.839Z,56.10
2019-05-22T10:35:28.750Z,53.30
2019-05-22T10:37:57.655Z,54.10
2019-05-22T10:40:26.435Z,47.80
2019-05-22T10:42:56.614Z,52.00
2019-05-22T10:45:26.005Z,52.70
2019-05-22T10:47:54.589Z,55.00
2019-05-22T10:50:24.084Z,52.20
2019-05-22T10:52:54.927Z,53.60
2019-05-22T10:55:24.991Z,56.70
2019-05-22T10:57:55.187Z,58.80
2019-05-22T11:00:25.232Z,60.20
2019-05-22T11:02:53.845Z,58.40
2019-05-22T11:05:22.732Z,58.80
2019-05-22T11:07:52.198Z,60.80
2019-05-22T11:10:24.245Z,60.20
2019-05-22T11:12:53.688Z,60.90
2019-05-22T11:15:23.156Z,60.70
2019-05-22T11:17:52.893Z,57.10
2019-05-22T11:20:22.676Z,54.10
2019-05-22T11:22:51.485Z,52.40
2019-05-22T11:25:21.288Z,52.10
2019-05-22T11:27:49.971Z,49.30
2019-05-22T11:30:20.151Z,53.60
2019-05-22T11:32:48.658Z,59.20
2019-05-22T11:35:18.815Z,56.20
2019-05-22T11:37:47.989Z,61.60
2019-05-22T11:40:19.966Z,62.90
2019-05-22T11:42:50.310Z,64.30
2019-05-22T11:45:20.693Z,64.30
2019-05-22T11:47:49.764Z,65.80
2019-05-22T11:50:19.455Z,64.90
2019-05-22T11:52:48.200Z,65.70
2019-05-22T11:55:17.379Z,65.10
2019-05-22T11:57:48.022Z,65.20
2019-05-22T12:00:20.118Z,64.30
2019-05-22T12:02:49.458Z,63.40
2019-05-22T12:05:20.611Z,64.10
2019-05-22T12:07:50.181Z,63.80
2019-05-22T12:10:20.757Z,63.00
2019-05-22T12:12:51.572Z,63.20
2019-05-22T12:15:24.664Z,64.00
2019-05-22T12:17:54.921Z,64.20
2019-05-22T12:20:26.076Z,64.90
2019-05-22T12:22:55.605Z,64.50
2019-05-22T12:25:25.530Z,65.40
2019-05-22T12:27:55.012Z,65.80
2019-05-22T12:30:24.501Z,66.70
2019-05-22T12:32:53.143Z,65.10
2019-05-22T12:35:22.043Z,64.70
2019-05-22T12:37:52.499Z,66.00
2019-05-22T12:40:23.900Z,65.40
2019-05-22T12:42:52.507Z,64.50
2019-05-22T12:45:27.215Z,62.90
2019-05-22T12:47:56.668Z,65.00
2019-05-22T12:50:29.790Z,64.80
2019-05-22T12:53:01.162Z,65.00
2019-05-22T12:55:30.457Z,63.80
2019-05-22T12:58:00.593Z,63.40
2019-05-22T13:00:31.302Z,63.70
2019-05-22T13:03:01.733Z,63.80
2019-05-22T13:05:30.778Z,61.80
2019-05-22T13:07:59.821Z,59.60
2019-05-22T13:10:29.359Z,60.40
2019-05-22T13:12:58.394Z,57.70
2019-05-22T13:15:27.276Z,54.40
2019-05-22T13:17:58.024Z,54.20
2019-05-22T13:20:42.689Z,50.30
2019-05-22T13:23:04.895Z,50.10
2019-05-22T13:25:36.906Z,52.50
2019-05-22T13:28:07.771Z,54.00
2019-05-22T13:30:37.635Z,60.50
2019-05-22T13:33:08.492Z,57.10
2019-05-22T13:35:37.238Z,62.30
2019-05-22T13:38:06.822Z,60.70
2019-05-22T13:40:37.474Z,53.50
2019-05-22T13:43:07.754Z,51.10
2019-05-22T13:45:36.561Z,51.40
2019-05-22T13:48:05.191Z,49.00
2019-05-22T13:50:35.945Z,46.60
2019-05-22T13:53:06.389Z,43.00
2019-05-22T13:55:35.697Z,47.90
2019-05-22T13:58:05.899Z,41.90
2019-05-22T14:00:36.476Z,43.50
2019-05-22T14:03:05.639Z,45.00
2019-05-22T14:05:36.452Z,39.40
2019-05-22T14:08:06.925Z,40.40
2019-05-22T14:10:36.371Z,43.50
2019-05-22T14:13:05.337Z,41.40
2019-05-22T14:15:48.861Z,41.60
2019-05-22T14:18:06.369Z,40.60
2019-05-22T14:20:36.662Z,40.60
2019-05-22T14:23:05.175Z,41.00
2019-05-22T14:25:34.220Z,41.60
2019-05-22T14:28:04.051Z,41.60
2019-05-22T14:30:33.283Z,39.10
2019-05-22T14:33:04.756Z,38.90
2019-05-22T14:35:47.658Z,38.70
2019-05-22T14:38:06.163Z,39.00
2019-05-22T14:40:37.544Z,37.50
2019-05-22T14:43:07.688Z,37.70
2019-05-22T14:45:37.239Z,38.20
2019-05-22T14:48:05.918Z,37.20
2019-05-22T14:50:34.747Z,37.40
2019-05-22T14:53:03.830Z,37.10
2019-05-22T14:55:34.363Z,37.20
2019-05-22T14:58:04.965Z,35.60
2019-05-22T15:00:36.608Z,35.00
2019-05-22T15:03:06.561Z,34.90
2019-05-22T15:05:35.379Z,35.70
2019-05-22T15:08:06.048Z,36.80
2019-05-22T15:10:36.017Z,35.80
2019-05-22T15:13:05.367Z,37.10
2019-05-22T15:15:34.106Z,35.70
2019-05-22T15:18:02.715Z,35.80
2019-05-22T15:20:36.244Z,34.60
2019-05-22T15:23:06.394Z,34.60
2019-05-22T15:25:35.268Z,34.20
2019-05-22T15:28:04.225Z,33.40
2019-05-22T15:30:32.772Z,33.90
2019-05-22T15:33:01.288Z,34.90
2019-05-22T15:35:30.326Z,35.30
2019-05-22T15:38:00.537Z,33.50
2019-05-22T15:40:30.147Z,34.50
2019-05-22T15:42:59.660Z,34.20
2019-05-22T15:45:30.175Z,35.10
2019-05-22T15:48:02.231Z,35.70
2019-05-22T15:50:33.826Z,34.70
2019-05-22T15:53:08.762Z,34.80
2019-05-22T15:55:38.164Z,35.10
2019-05-22T15:58:08.873Z,35.80
2019-05-22T16:00:40.456Z,36.50
2019-05-22T16:03:12.388Z,34.20
2019-05-22T16:05:43.337Z,35.70
2019-05-22T16:08:14.658Z,34.40
2019-05-22T16:10:44.880Z,34.40
2019-05-22T16:13:15.615Z,34.50
2019-05-22T16:15:47.207Z,34.80
2019-05-22T16:18:19.811Z,35.30
2019-05-22T16:20:49.579Z,35.30
2019-05-22T16:23:21.624Z,34.80
2019-05-22T16:25:52.354Z,34.80
2019-05-22T16:28:22.655Z,33.80
2019-05-22T16:30:52.449Z,36.20
2019-05-22T16:33:23.340Z,35.50
2019-05-22T16:35:52.339Z,35.90
2019-05-22T16:38:21.922Z,35.00
2019-05-22T16:40:50.680Z,34.20
2019-05-22T16:43:19.302Z,33.60
2019-05-22T16:45:49.805Z,34.10
2019-05-22T16:48:28.432Z,34.90
2019-05-22T16:50:49.527Z,34.70
2019-05-22T16:53:19.779Z,34.40
2019-05-22T16:55:49.607Z,35.80
2019-05-22T16:58:19.206Z,34.50
2019-05-22T17:00:49.685Z,35.40
2019-05-22T17:03:19.628Z,34.40
2019-05-22T17:05:48.217Z,34.50
2019-05-22T17:08:17.379Z,34.60
2019-05-22T17:10:46.622Z,36.90
2019-05-22T17:13:16.573Z,36.60
2019-05-22T17:15:45.374Z,36.70
2019-05-22T17:18:17.124Z,34.80
2019-05-22T17:20:47.509Z,36.70
2019-05-22T17:23:17.380Z,35.10
2019-05-22T17:25:46.211Z,37.20
2019-05-22T17:28:17.066Z,36.90
2019-05-22T17:30:46.533Z,36.30
2019-05-22T17:33:15.211Z,36.60
2019-05-22T17:35:44.811Z,35.50
2019-05-22T17:38:14.873Z,35.80
2019-05-22T17:40:43.767Z,37.30
2019-05-22T17:43:13.172Z,38.50
2019-05-22T17:45:43.786Z,38.30
2019-05-22T17:48:14.762Z,36.30
2019-05-22T17:50:44.571Z,37.50
2019-05-22T17:53:13.932Z,39.90
2019-05-22T17:55:42.911Z,40.90
2019-05-22T17:58:12.098Z,39.20
2019-05-22T18:00:42.826Z,39.60
2019-05-22T18:03:11.799Z,40.70
2019-05-22T18:05:41.335Z,41.10
2019-05-22T18:08:10.714Z,40.00
2019-05-22T18:10:41.737Z,40.90
2019-05-22T18:13:12.079Z,41.10
2019-05-22T18:15:41.770Z,44.00
2019-05-22T18:18:12.718Z,45.10
2019-05-22T18:20:43.753Z,47.60
2019-05-22T18:23:11.841Z,48.40
2019-05-22T18:25:40.620Z,51.20
2019-05-22T18:28:10.778Z,52.40
2019-05-22T18:30:41.156Z,55.10
2019-05-22T18:33:11.211Z,56.90
2019-05-22T18:35:40.071Z,58.20
2019-05-22T18:38:08.757Z,60.30
2019-05-22T18:40:37.634Z,60.50
2019-05-22T18:43:06.315Z,60.30
2019-05-22T18:45:36.840Z,60.30
2019-05-22T18:48:06.434Z,61.10
2019-05-22T18:50:36.118Z,61.30
2019-05-22T18:53:05.450Z,61.80
2019-05-22T18:55:33.941Z,62.00
2019-05-22T18:58:02.660Z,62.60
2019-05-22T19:00:33.386Z,62.60
2019-05-22T19:03:01.923Z,61.80
2019-05-22T19:05:32.683Z,62.50
2019-05-22T19:08:01.676Z,62.70
2019-05-22T19:10:31.357Z,63.00
2019-05-22T19:13:00.424Z,64.10
2019-05-22T19:15:29.226Z,64.30
2019-05-22T19:17:58.644Z,63.80
2019-05-22T19:20:27.351Z,64.30
2019-05-22T19:23:00.872Z,65.10
2019-05-22T19:25:27.074Z,65.80
2019-05-22T19:27:55.695Z,65.80
2019-05-22T19:30:24.694Z,65.80
2019-05-22T19:32:55.118Z,66.80
2019-05-22T19:35:23.527Z,68.20
2019-05-22T19:37:52.537Z,69.90
2019-05-22T19:40:21.687Z,69.90
2019-05-22T19:42:51.058Z,69.30
2019-05-22T19:45:20.698Z,69.30
2019-05-22T19:47:53.175Z,70.00
2019-05-22T19:50:23.847Z,70.00
2019-05-22T19:52:54.828Z,70.90
2019-05-22T19:55:26.397Z,70.20
2019-05-22T19:57:55.423Z,69.10
2019-05-22T20:00:24.611Z,69.80
2019-05-22T20:02:54.400Z,68.40
2019-05-22T20:05:24.125Z,68.50
2019-05-22T20:07:53.461Z,69.70
2019-05-22T20:10:23.218Z,69.10
2019-05-22T20:12:52.280Z,70.00
2019-05-22T20:15:21.613Z,70.60
2019-05-22T20:17:50.398Z,70.90
2019-05-22T20:20:20.034Z,71.10
2019-05-22T20:22:49.608Z,71.30
2019-05-22T20:25:20.507Z,71.10
2019-05-22T20:27:49.092Z,71.00
2019-05-22T20:30:20.677Z,70.80
2019-05-22T20:32:49.345Z,70.90
2019-05-22T20:35:18.657Z,71.30
2019-05-22T20:37:47.749Z,71.70
2019-05-22T20:40:19.292Z,71.40
2019-05-22T20:42:47.958Z,71.80
2019-05-22T20:45:19.128Z,72.20
2019-05-22T20:47:49.350Z,72.00
2019-05-22T20:50:26.658Z,72.50
2019-05-22T20:52:55.591Z,72.50
2019-05-22T20:55:24.172Z,71.60
2019-05-22T20:57:52.965Z,72.50
2019-05-22T21:00:21.861Z,72.50
2019-05-22T21:02:53.566Z,72.20
2019-05-22T21:05:25.106Z,73.70
2019-05-22T21:07:56.972Z,74.60
2019-05-22T21:10:26.111Z,76.10
2019-05-22T21:12:55.614Z,75.80
2019-05-22T21:15:24.627Z,76.10
2019-05-22T21:17:53.711Z,76.10
2019-05-22T21:20:26.607Z,75.70
2019-05-22T21:22:55.501Z,75.60
2019-05-22T21:25:24.844Z,74.90
2019-05-22T21:27:53.927Z,76.20
2019-05-22T21:30:24.028Z,74.90
2019-05-22T21:32:52.894Z,74.80
2019-05-22T21:35:23.728Z,74.90
2019-05-22T21:37:52.940Z,76.10
2019-05-22T21:40:22.695Z,75.50
2019-05-22T21:42:54.019Z,75.20
2019-05-22T21:45:24.086Z,74.70
2019-05-22T21:47:52.728Z,74.50
2019-05-22T21:50:21.900Z,73.70
2019-05-22T21:52:50.625Z,83.70
2019-05-22T21:55:19.753Z,84.60
2019-05-22T21:57:48.669Z,84.70
2019-05-22T22:00:21.810Z,84.20
2019-05-22T22:02:52.293Z,84.40
2019-05-22T22:05:21.140Z,84.10
2019-05-22T22:07:51.120Z,84.00
2019-05-22T22:10:20.223Z,83.70
2019-05-22T22:12:49.202Z,83.70
2019-05-22T22:15:19.247Z,82.70
2019-05-22T22:17:49.424Z,84.30
2019-05-22T22:20:18.724Z,85.40
2019-05-22T22:22:48.993Z,85.10
2019-05-22T22:25:19.020Z,85.00
2019-05-22T22:27:47.733Z,85.00
2019-05-22T22:30:25.687Z,84.40
2019-05-22T22:32:57.286Z,84.10
2019-05-22T22:35:25.858Z,84.30
2019-05-22T22:37:54.848Z,84.00
2019-05-22T22:40:27.083Z,83.50
2019-05-22T22:42:55.732Z,84.00
2019-05-22T22:45:39.683Z,83.30
2019-05-22T22:48:08.499Z,83.80
2019-05-22T22:50:38.290Z,84.80
2019-05-22T22:53:07.919Z,86.00
2019-05-22T22:55:39.390Z,85.90
2019-05-22T22:58:17.161Z,85.70
2019-05-22T23:00:40.739Z,86.20
2019-05-22T23:03:12.893Z,86.80
2019-05-22T23:05:44.555Z,86.30
2019-05-22T23:08:17.210Z,85.70
2019-05-22T23:10:46.157Z,85.40
2019-05-22T23:13:16.053Z,85.10
2019-05-22T23:15:46.331Z,85.20
2019-05-22T23:18:41.272Z,85.10
2019-05-22T23:21:09.416Z,85.20
2019-05-22T23:23:36.753Z,86.20
2019-05-22T23:26:06.865Z,85.70
2019-05-22T23:28:40.663Z,85.00
2019-05-22T23:31:09.481Z,84.40
2019-05-22T23:33:38.988Z,84.80
2019-05-22T23:36:08.956Z,84.60
2019-05-22T23:38:38.452Z,83.60
2019-05-22T23:41:08.055Z,83.00
2019-05-22T23:43:37.000Z,83.90
2019-05-22T23:46:08.336Z,84.20
2019-05-22T23:48:38.588Z,84.30
2019-05-22T23:51:07.200Z,84.80
2019-05-22T23:53:37.653Z,85.60
2019-05-22T23:56:06.457Z,86.30
2019-05-22T23:58:51.502Z,86.70
